Springfield, MO (65803)

2:44 PM CDT on October 01, 2014 (GMT -0500)
Wubbaville | Change Station
CLOSE
Current Station
Personal Weather Station
Location: Springfield, MO
Elevation: 1201 ft
Nearby Weather Stations

Elev 1201 ft 37.26 °N, 93.31 °W | Updated 3 seconds ago

Partly Cloudy
Partly Cloudy
83.5 °F
Feels Like 85 °F
N
9.2
Wind Variable Wind from West
Gusts 13.0 mph

Today
High -- | Low -- °F
--% Chance of Precip.
Yesterday
High -- | Low -- °F
Precip. -- in
7:08 AM 6:56 PM
Waxing Crescent, 50% visible
Pressure 29.86 in
Visibility 10.0 miles
Clouds Few 5500 ft
Heat Index 85 °F
Dew Point 63 °F
Humidity 50%
Rainfall 0.00 in
Snow Depth Not available.
UV 5 out of 12
Pollen 5.00 out of 12
Ozone Good
PM2.5 Good
Flu Activity Not available.
METAR KSGF 301952Z 17005KT 10SM FEW055 27/13 A2989 RMK AO2 SLP109 T02720133

More Conditions Fewer Conditions

Pressure 29.86 in
Visibility 10.0 miles
Clouds Few 5500 ft
Heat Index 85 °F
Dew Point 63 °F
Humidity 50%
Rainfall 0.00 in
Snow Depth Not available.
UV 5 out of 12
Pollen 5.00 out of 12
Ozone Good
PM2.5 Good
Flu Activity Not available.
METAR KSGF 301952Z 17005KT 10SM FEW055 27/13 A2989 RMK AO2 SLP109 T02720133

More Conditions Fewer Conditions

10-Day Weather Forecast

Almanac

Astronomy

Oct. 01, 2014 Rise Set
Actual Time 7:08 AM CDT 6:56 PM CDT
Civil Twilight 6:42 AM CDT 7:22 PM CDT
Nautical Twilight 6:12 AM CDT 7:52 PM CDT
Astronomical Twilight 5:42 AM CDT 8:22 PM CDT
Moon 2:04 PM CDT No Moon Set
Length of Visible Light 12h 39m
Length of Day
11h 47m
Tomorrow will be 2m 21s shorter.
Waxing Crescent, 50% of the Moon is Illuminated
Today
Waxing Crescent
Oct 8
Full
Oct 15
Last Quarter
Oct 23
New
Oct 30
First Quarter

Today's Extremes

State Highs State Lows

Community

WunderPhotos

Upload Photos

1,758,013 photos uploaded!

WunderBlogs® & News

By Dr. Jeff Masters
Director of Meteorology, Weather Underground
By Kari Strenfel
Meteorologist, Weather Underground
By Christopher C. Burt
Weather Historian, Weather Underground
October 1, 2014
October 1, 2014
October 1, 2014

Nearby

Air Quality

  Air Quality AQ Index Pollutant
Yesterday Good
PM10
Yesterday Good
OZONE
Current Good
PM2.5
Current Good
OZONE
Wednesday Good
OZONE
Wednesday Good
PM2.5
Thursday Good
OZONE
Thursday Good
PM2.5
Friday Good
OZONE
Friday Good
PM2.5

Snow Depth

Station Depth Elevation
No new snow has been reported.

Earthquake Activity

City Distance Mag. Time & Date
No recent earthquake activity has been reported nearby.
Minimum magnitude displayed is 2.5.

Coastal Water Temperatures

Place Temperature
No Stations Reporting

Nearby Weather Stations